Time;durP1;ratioP1;P1;durP2;ratioP2;P2;SDS_P1;SDS_P2;PMS_P1;PMS_P2;Temp;Humidity;BMP_temperature;BMP_pressure;BME280_temperature;BME280_humidity;BME280_pressure;Samples;Min_cycle;Max_cycle;Signal;HPM_P1;HPM_P2
2021/11/26 00:00:32;;;;;;;63.13;36.85;;;7.40;99.90;;;;;;2079439;28;20021;-70
2021/11/26 00:01:33;;;;;;;60.78;37.15;;;7.40;99.90;;;;;;2078049;28;20030;-70
2021/11/26 00:02:33;;;;;;;56.47;35.03;;;7.40;99.90;;;;;;2080891;28;20485;-69
2021/11/26 00:03:34;;;;;;;57.72;34.95;;;7.40;99.90;;;;;;2083972;28;20017;-70
2021/11/26 00:04:35;;;;;;;57.53;34.85;;;7.40;99.90;;;;;;2084536;28;20049;-70
2021/11/26 00:05:35;;;;;;;54.72;33.90;;;7.40;99.90;;;;;;2085106;28;20026;-70
2021/11/26 00:06:36;;;;;;;59.97;34.72;;;7.40;99.90;;;;;;2079870;28;20113;-70
2021/11/26 00:07:37;;;;;;;60.03;33.47;;;7.40;99.90;;;;;;2080345;28;20030;-70
2021/11/26 00:08:37;;;;;;;52.13;32.58;;;7.40;99.90;;;;;;2080356;28;20026;-70
2021/11/26 00:09:38;;;;;;;57.58;32.60;;;7.40;99.90;;;;;;2080109;28;20088;-70
2021/11/26 00:10:39;;;;;;;53.25;32.50;;;7.30;99.90;;;;;;2080094;28;20045;-70
2021/11/26 00:11:39;;;;;;;58.33;35.17;;;7.40;99.90;;;;;;2080518;28;20866;-70
2021/11/26 00:12:46;;;;;;;53.63;32.35;;;7.40;99.90;;;;;;2078957;28;20041;-70
2021/11/26 00:13:59;;;;;;;50.47;31.00;;;7.30;99.90;;;;;;2075883;28;20034;-70
2021/11/26 00:16:07;;;;;;;53.38;31.13;;;7.30;99.90;;;;;;2080137;28;20032;-70
2021/11/26 00:17:15;;;;;;;53.92;32.30;;;7.30;99.90;;;;;;2080056;28;20025;-70
2021/11/26 00:18:19;;;;;;;56.08;30.98;;;7.30;99.90;;;;;;2080534;28;20097;-70
2021/11/26 00:19:20;;;;;;;49.17;30.20;;;7.30;99.90;;;;;;2079102;28;20025;-70
2021/11/26 00:20:20;;;;;;;55.72;31.35;;;7.30;99.90;;;;;;2075065;28;20566;-70
2021/11/26 00:21:21;;;;;;;51.63;30.30;;;7.30;99.90;;;;;;2072319;28;20030;-70
2021/11/26 00:22:21;;;;;;;50.15;31.27;;;7.40;99.90;;;;;;2072532;28;20022;-70
2021/11/26 00:23:22;;;;;;;51.83;30.67;;;7.30;99.90;;;;;;2071815;28;20021;-70
2021/11/26 00:24:23;;;;;;;50.25;30.95;;;7.30;99.90;;;;;;2072019;28;20037;-70
2021/11/26 00:25:24;;;;;;;50.53;31.30;;;7.30;99.90;;;;;;2071923;28;20053;-70
2021/11/26 00:26:25;;;;;;;53.80;30.58;;;7.30;99.90;;;;;;2073947;28;20060;-70
2021/11/26 00:27:25;;;;;;;56.30;30.38;;;7.30;99.90;;;;;;2075570;28;20021;-70
2021/11/26 00:28:26;;;;;;;52.75;30.88;;;7.40;99.90;;;;;;2079931;28;20074;-70
2021/11/26 00:29:27;;;;;;;53.28;30.20;;;7.30;99.90;;;;;;2079635;28;20124;-70
2021/11/26 00:30:27;;;;;;;48.10;29.27;;;7.40;99.90;;;;;;2080364;28;20034;-70
2021/11/26 00:31:28;;;;;;;50.60;29.73;;;7.30;99.90;;;;;;2079897;28;20041;-70
2021/11/26 00:32:29;;;;;;;51.47;31.15;;;7.40;99.90;;;;;;2080316;28;20025;-70
2021/11/26 00:33:29;;;;;;;50.25;30.27;;;7.40;99.90;;;;;;2079614;28;20022;-70
2021/11/26 00:34:30;;;;;;;49.97;29.95;;;7.30;99.90;;;;;;2079284;28;20022;-70
2021/11/26 00:35:31;;;;;;;55.58;30.98;;;7.30;99.90;;;;;;2071640;28;20097;-70
2021/11/26 00:36:33;;;;;;;47.80;29.70;;;7.30;99.90;;;;;;2071308;28;20022;-70
2021/11/26 00:37:33;;;;;;;48.78;30.63;;;7.30;99.90;;;;;;2071172;28;20446;-70
2021/11/26 00:38:34;;;;;;;49.15;29.50;;;7.30;99.90;;;;;;2072006;28;20033;-70
2021/11/26 00:39:35;;;;;;;50.65;30.90;;;7.30;99.90;;;;;;2071371;28;20030;-70
2021/11/26 00:40:35;;;;;;;54.72;30.88;;;7.30;99.90;;;;;;2078722;28;20025;-70
2021/11/26 00:41:36;;;;;;;54.03;30.90;;;7.30;99.90;;;;;;2079859;28;20034;-70
2021/11/26 00:42:39;;;;;;;49.83;30.80;;;7.30;99.90;;;;;;2080301;28;20022;-70
2021/11/26 00:43:40;;;;;;;49.40;29.15;;;7.30;99.90;;;;;;2079688;28;20343;-70
2021/11/26 00:44:41;;;;;;;48.78;29.60;;;7.30;99.90;;;;;;2079053;28;20044;-70
2021/11/26 00:45:41;;;;;;;48.00;29.42;;;7.30;99.90;;;;;;2079481;28;20029;-70
2021/11/26 00:46:42;;;;;;;44.78;30.20;;;7.30;99.90;;;;;;2080146;28;20116;-70
2021/11/26 00:47:43;;;;;;;44.70;28.98;;;7.30;99.90;;;;;;2077784;28;20118;-70
2021/11/26 00:48:44;;;;;;;49.33;29.08;;;7.30;99.90;;;;;;2072229;28;20022;-70
2021/11/26 00:49:45;;;;;;;43.80;27.85;;;7.30;99.90;;;;;;2071540;28;20096;-70
2021/11/26 00:50:46;;;;;;;51.60;29.33;;;7.30;99.90;;;;;;2071391;28;20394;-70
2021/11/26 00:51:47;;;;;;;45.75;29.27;;;7.30;99.90;;;;;;2072031;28;20741;-70
2021/11/26 00:52:47;;;;;;;47.40;29.73;;;7.30;99.90;;;;;;2072012;28;20029;-70
2021/11/26 00:53:48;;;;;;;51.10;30.10;;;7.40;99.90;;;;;;2070842;28;20030;-70
2021/11/26 00:54:48;;;;;;;51.88;30.85;;;7.30;99.90;;;;;;2071824;28;20037;-70
2021/11/26 00:55:49;;;;;;;49.00;30.70;;;7.30;99.90;;;;;;2079774;28;20025;-70
2021/11/26 00:56:50;;;;;;;49.03;29.75;;;7.30;99.90;;;;;;2080102;28;20029;-70
2021/11/26 00:57:50;;;;;;;48.63;29.65;;;7.30;99.90;;;;;;2080039;28;20482;-69
2021/11/26 00:58:51;;;;;;;45.88;30.23;;;7.40;99.90;;;;;;2079591;28;20030;-70
2021/11/26 00:59:52;;;;;;;46.63;27.88;;;7.30;99.90;;;;;;2079692;28;20021;-70
2021/11/26 01:00:53;;;;;;;52.60;30.52;;;7.30;99.90;;;;;;2076678;28;20022;-70
2021/11/26 01:01:53;;;;;;;46.33;29.65;;;7.30;99.90;;;;;;2071806;28;20037;-71
2021/11/26 01:02:54;;;;;;;50.92;30.33;;;7.30;99.90;;;;;;2071488;28;20394;-71
2021/11/26 01:03:55;;;;;;;51.22;30.58;;;7.30;99.90;;;;;;2075519;28;20017;-71
2021/11/26 01:04:55;;;;;;;50.88;30.17;;;7.30;99.90;;;;;;2079256;28;20061;-71
2021/11/26 01:05:56;;;;;;;52.35;30.80;;;7.30;99.90;;;;;;2079062;28;20049;-71
2021/11/26 01:06:57;;;;;;;51.58;30.70;;;7.30;99.90;;;;;;2079724;28;20033;-71
2021/11/26 01:07:58;;;;;;;58.65;30.70;;;7.30;99.90;;;;;;2074143;28;20021;-71
2021/11/26 01:08:59;;;;;;;52.28;31.50;;;7.30;99.90;;;;;;2078960;28;20030;-71
2021/11/26 01:10:00;;;;;;;49.13;29.35;;;7.30;99.90;;;;;;2079554;28;20045;-71
2021/11/26 01:11:01;;;;;;;52.72;30.38;;;7.30;99.90;;;;;;2079756;28;20021;-71
2021/11/26 01:12:02;;;;;;;57.75;31.67;;;7.30;99.90;;;;;;2079035;28;20176;-71
2021/11/26 01:13:03;;;;;;;52.60;32.35;;;7.30;99.90;;;;;;2078849;28;20060;-71
2021/11/26 01:14:03;;;;;;;51.55;31.17;;;7.30;99.90;;;;;;2079594;28;20049;-71
2021/11/26 01:15:07;;;;;;;54.33;31.58;;;7.40;99.90;;;;;;2079842;28;20034;-71
2021/11/26 01:16:08;;;;;;;51.65;32.58;;;7.40;99.90;;;;;;2080125;28;20021;-71
2021/11/26 01:17:08;;;;;;;46.50;31.15;;;7.40;99.90;;;;;;2079673;28;20022;-71
2021/11/26 01:18:10;;;;;;;53.67;32.85;;;7.40;99.90;;;;;;2080028;28;20043;-71
2021/11/26 01:19:11;;;;;;;49.92;31.73;;;7.40;99.90;;;;;;2079505;28;20056;-71
2021/11/26 01:20:15;;;;;;;58.67;32.05;;;7.30;99.90;;;;;;2079406;28;20528;-71
2021/11/26 01:21:16;;;;;;;57.42;32.55;;;7.40;99.90;;;;;;2079623;28;20093;-71
2021/11/26 01:22:17;;;;;;;58.38;33.25;;;7.30;99.90;;;;;;2074046;28;20022;-71
2021/11/26 01:23:18;;;;;;;55.50;32.30;;;7.40;99.90;;;;;;2071589;28;20029;-71
2021/11/26 01:24:18;;;;;;;51.25;30.52;;;7.40;99.90;;;;;;2071793;28;20492;-71
2021/11/26 01:25:20;;;;;;;52.95;32.00;;;7.40;99.90;;;;;;2078609;28;20136;-71
2021/11/26 01:26:20;;;;;;;52.50;32.45;;;7.40;99.90;;;;;;2081411;28;20029;-71
2021/11/26 01:27:21;;;;;;;55.10;32.88;;;7.40;99.90;;;;;;2079693;28;20052;-71
2021/11/26 01:28:22;;;;;;;48.97;30.95;;;7.40;99.90;;;;;;2079598;28;20394;-71
2021/11/26 01:29:23;;;;;;;60.08;32.63;;;7.30;99.90;;;;;;2079471;28;20025;-71
2021/11/26 01:30:29;;;;;;;55.08;33.20;;;7.40;99.90;;;;;;2079819;28;20024;-71
2021/11/26 01:31:30;;;;;;;51.85;31.55;;;7.40;99.90;;;;;;2079850;28;20072;-71
2021/11/26 01:32:30;;;;;;;55.35;32.70;;;7.40;99.90;;;;;;2079696;28;20013;-71
2021/11/26 01:33:31;;;;;;;53.35;32.58;;;7.30;99.90;;;;;;2075827;28;20044;-71
2021/11/26 01:34:32;;;;;;;49.90;31.73;;;7.30;99.90;;;;;;2079994;28;20025;-71
2021/11/26 01:35:33;;;;;;;57.10;33.75;;;7.30;99.90;;;;;;2079339;28;20585;-71
2021/11/26 01:36:34;;;;;;;57.88;34.63;;;7.30;99.90;;;;;;2079924;28;20029;-71
2021/11/26 01:37:34;;;;;;;54.15;33.17;;;7.30;99.90;;;;;;2079395;28;20412;-71
2021/11/26 01:38:35;;;;;;;51.30;31.27;;;7.30;99.90;;;;;;2079691;28;20026;-71
2021/11/26 01:39:36;;;;;;;52.05;32.70;;;7.30;99.90;;;;;;2079592;28;20589;-71
2021/11/26 01:40:38;;;;;;;54.22;32.83;;;7.30;99.90;;;;;;2079425;28;20033;-71
2021/11/26 01:41:42;;;;;;;50.00;30.55;;;7.20;99.90;;;;;;2079167;28;20017;-71
2021/11/26 01:42:44;;;;;;;46.50;30.17;;;7.30;99.90;;;;;;2078137;28;20017;-71
2021/11/26 01:43:44;;;;;;;53.10;32.90;;;7.20;99.90;;;;;;2070650;28;20030;-71
2021/11/26 01:44:45;;;;;;;53.83;31.80;;;7.30;99.90;;;;;;2082153;28;20025;-71
2021/11/26 01:45:52;;;;;;;52.15;32.40;;;7.20;99.90;;;;;;2071569;28;20018;-71
2021/11/26 01:46:53;;;;;;;54.97;32.08;;;7.20;99.90;;;;;;2071615;28;20084;-71
2021/11/26 01:47:54;;;;;;;54.55;31.90;;;7.20;99.90;;;;;;2075193;28;20025;-70
2021/11/26 01:48:54;;;;;;;48.28;31.15;;;7.20;99.90;;;;;;2079692;28;20029;-71
2021/11/26 01:49:55;;;;;;;61.28;33.13;;;7.20;99.90;;;;;;2079210;28;20167;-71
2021/11/26 01:50:56;;;;;;;55.10;32.38;;;7.20;99.90;;;;;;2079376;28;20112;-71
2021/11/26 01:51:57;;;;;;;59.45;31.23;;;7.20;99.90;;;;;;2079555;28;20465;-71
2021/11/26 01:52:57;;;;;;;53.90;30.52;;;7.20;99.90;;;;;;2079551;28;20075;-71
2021/11/26 01:53:58;;;;;;;56.90;31.60;;;7.20;99.90;;;;;;2078763;28;20037;-71
2021/11/26 01:54:59;;;;;;;48.67;30.67;;;7.20;99.90;;;;;;2073261;28;20030;-71
2021/11/26 01:55:59;;;;;;;53.08;30.27;;;7.20;99.90;;;;;;2079499;28;20024;-71
2021/11/26 01:57:00;;;;;;;55.70;31.75;;;7.20;99.90;;;;;;2078545;28;20410;-71
2021/11/26 01:58:01;;;;;;;61.45;31.98;;;7.20;99.90;;;;;;2072226;28;20018;-70
2021/11/26 01:59:03;;;;;;;53.97;31.73;;;7.20;99.90;;;;;;2070373;28;20030;-71
2021/11/26 02:00:10;;;;;;;53.80;31.50;;;7.20;99.90;;;;;;2073757;28;20924;-71
2021/11/26 02:01:12;;;;;;;57.53;32.20;;;7.20;99.90;;;;;;2079168;28;20064;-71
2021/11/26 02:02:13;;;;;;;50.45;31.27;;;7.20;99.90;;;;;;2079742;28;20017;-71
2021/11/26 02:03:14;;;;;;;55.08;31.60;;;7.20;99.90;;;;;;2078959;28;20044;-71
2021/11/26 02:04:15;;;;;;;54.40;30.63;;;7.20;99.90;;;;;;2079996;28;20026;-71
2021/11/26 02:05:15;;;;;;;54.13;31.25;;;7.20;99.90;;;;;;2078594;28;20109;-71
2021/11/26 02:06:17;;;;;;;56.35;31.42;;;7.20;99.90;;;;;;2079569;28;20037;-71
2021/11/26 02:07:17;;;;;;;52.47;30.02;;;7.20;99.90;;;;;;2079421;28;20026;-71
2021/11/26 02:08:18;;;;;;;52.88;30.92;;;7.20;99.90;;;;;;2086230;28;20040;-71
2021/11/26 02:09:18;;;;;;;54.53;31.63;;;7.20;99.90;;;;;;2078890;28;20026;-71
2021/11/26 02:10:19;;;;;;;53.60;32.70;;;7.20;99.90;;;;;;2077010;28;20029;-71
2021/11/26 02:11:20;;;;;;;52.25;30.08;;;7.20;99.90;;;;;;2071252;28;20026;-70
2021/11/26 02:12:21;;;;;;;51.58;31.95;;;7.20;99.90;;;;;;2077308;28;20013;-70
2021/11/26 02:13:21;;;;;;;54.83;32.35;;;7.20;99.90;;;;;;2078805;28;20466;-70
2021/11/26 02:14:22;;;;;;;49.58;29.08;;;7.20;99.90;;;;;;2079753;28;20124;-71
2021/11/26 02:15:25;;;;;;;51.67;28.63;;;7.20;99.90;;;;;;2079420;28;20022;-70
2021/11/26 02:16:26;;;;;;;51.28;29.52;;;7.20;99.90;;;;;;2079679;28;20056;-70
2021/11/26 02:17:27;;;;;;;52.33;29.95;;;7.20;99.90;;;;;;2079352;28;20025;-70
2021/11/26 02:18:28;;;;;;;46.88;28.83;;;7.10;99.90;;;;;;2079555;28;20100;-70
2021/11/26 02:19:29;;;;;;;48.97;29.77;;;7.10;99.90;;;;;;2079087;28;20018;-71
2021/11/26 02:20:30;;;;;;;50.65;30.00;;;7.10;99.90;;;;;;2086862;28;20079;-70
2021/11/26 02:21:30;;;;;;;53.30;29.50;;;7.10;99.90;;;;;;2078829;28;20053;-71
2021/11/26 02:22:31;;;;;;;49.78;30.02;;;7.10;99.90;;;;;;2079049;28;20021;-71
2021/11/26 02:23:33;;;;;;;50.70;28.73;;;7.10;99.90;;;;;;2074898;28;20053;-71
2021/11/26 02:24:34;;;;;;;46.42;28.58;;;7.10;99.90;;;;;;2071425;28;20022;-70
2021/11/26 02:25:35;;;;;;;45.28;27.98;;;7.10;99.90;;;;;;2078913;28;20025;-70
2021/11/26 02:26:37;;;;;;;49.05;29.40;;;7.10;99.90;;;;;;2075901;28;20076;-70
2021/11/26 02:27:38;;;;;;;45.08;28.55;;;7.10;99.90;;;;;;2075970;28;20101;-71
2021/11/26 02:28:41;;;;;;;45.85;28.67;;;7.10;99.90;;;;;;2079211;28;20458;-71
2021/11/26 02:29:42;;;;;;;43.47;27.73;;;7.10;99.90;;;;;;2079089;28;20018;-71
2021/11/26 02:30:43;;;;;;;47.10;29.50;;;7.10;99.90;;;;;;2079403;28;20054;-71
2021/11/26 02:31:44;;;;;;;47.55;29.70;;;7.10;99.90;;;;;;2079264;28;20076;-71
2021/11/26 02:32:51;;;;;;;48.92;29.25;;;7.10;99.90;;;;;;2079605;28;20032;-70
2021/11/26 02:33:52;;;;;;;55.10;29.77;;;7.10;99.90;;;;;;2078712;28;20036;-70
2021/11/26 02:34:53;;;;;;;44.88;28.90;;;7.10;99.90;;;;;;2079351;28;20021;-70
2021/11/26 02:35:54;;;;;;;46.72;30.27;;;7.10;99.90;;;;;;2079449;28;20346;-70
2021/11/26 02:36:55;;;;;;;46.67;30.27;;;7.10;99.90;;;;;;2078858;28;20120;-71
2021/11/26 02:37:56;;;;;;;47.28;29.15;;;7.10;99.90;;;;;;2076658;28;20029;-71
2021/11/26 02:38:57;;;;;;;48.75;31.42;;;7.10;99.90;;;;;;2071006;28;20030;-71
2021/11/26 02:39:58;;;;;;;46.50;29.50;;;7.10;99.90;;;;;;2076514;28;20100;-71
2021/11/26 02:40:58;;;;;;;47.85;29.98;;;7.10;99.90;;;;;;2079038;28;20104;-71
2021/11/26 02:41:59;;;;;;;47.47;30.40;;;7.20;99.90;;;;;;2079611;28;20032;-71
2021/11/26 02:43:00;;;;;;;49.95;30.52;;;7.20;99.90;;;;;;2079546;28;20100;-70
2021/11/26 02:44:01;;;;;;;49.63;30.55;;;7.20;99.90;;;;;;2079113;28;20466;-70
2021/11/26 02:45:04;;;;;;;57.38;32.50;;;7.20;99.90;;;;;;2079271;28;20096;-70
2021/11/26 02:46:04;;;;;;;53.67;31.80;;;7.20;99.90;;;;;;2074468;28;20037;-71
2021/11/26 02:47:05;;;;;;;53.45;31.85;;;7.20;99.90;;;;;;2078136;28;20489;-70
2021/11/26 02:48:06;;;;;;;56.65;33.90;;;7.20;99.90;;;;;;2078135;28;20469;-70
2021/11/26 02:49:07;;;;;;;49.85;32.30;;;7.20;99.90;;;;;;2079372;28;20033;-70
2021/11/26 02:50:10;;;;;;;53.53;33.40;;;7.20;99.90;;;;;;2078954;28;20104;-70
2021/11/26 02:51:10;;;;;;;49.25;31.75;;;7.20;99.90;;;;;;2079254;28;20036;-70
2021/11/26 02:52:11;;;;;;;56.08;34.03;;;7.10;99.90;;;;;;2079515;28;20030;-70
2021/11/26 02:53:12;;;;;;;51.13;32.70;;;7.10;99.90;;;;;;2078499;28;20482;-71
2021/11/26 02:54:12;;;;;;;53.75;33.60;;;7.10;99.90;;;;;;2076241;28;20486;-70
2021/11/26 02:55:16;;;;;;;52.92;31.55;;;7.10;99.90;;;;;;2076641;28;20018;-70
2021/11/26 02:56:17;;;;;;;53.28;32.70;;;7.10;99.90;;;;;;2079217;28;20029;-70
2021/11/26 02:57:17;;;;;;;55.88;34.17;;;7.10;99.90;;;;;;2079255;28;20071;-70
2021/11/26 02:58:18;;;;;;;50.58;32.15;;;7.10;99.90;;;;;;2079203;28;20025;-70
2021/11/26 02:59:19;;;;;;;52.22;33.65;;;7.10;99.90;;;;;;2078944;28;20462;-70
2021/11/26 03:00:24;;;;;;;57.13;32.50;;;7.10;99.90;;;;;;2079607;28;20053;-70
2021/11/26 03:01:25;;;;;;;60.60;33.83;;;7.10;99.90;;;;;;2079308;28;20478;-70
2021/11/26 03:02:25;;;;;;;61.35;34.35;;;7.10;99.90;;;;;;2079347;28;20070;-70
2021/11/26 03:03:27;;;;;;;60.08;35.30;;;7.10;99.90;;;;;;2078862;28;20469;-70
2021/11/26 03:04:27;;;;;;;56.33;34.22;;;7.10;99.90;;;;;;2079446;28;20026;-70
2021/11/26 03:05:28;;;;;;;57.13;33.38;;;7.20;99.90;;;;;;2077305;28;20025;-70
2021/11/26 03:06:29;;;;;;;54.90;33.78;;;7.20;99.90;;;;;;2071429;28;20611;-70
2021/11/26 03:07:29;;;;;;;54.50;33.58;;;7.20;99.90;;;;;;2070969;28;20425;-70
2021/11/26 03:08:31;;;;;;;56.55;33.70;;;7.20;99.90;;;;;;2071343;28;20048;-70
2021/11/26 03:09:31;;;;;;;55.80;33.53;;;7.20;99.90;;;;;;2070758;28;20033;-70
2021/11/26 03:10:33;;;;;;;55.65;33.90;;;7.20;99.90;;;;;;2071258;28;20045;-70
2021/11/26 03:11:34;;;;;;;54.97;33.13;;;7.20;99.90;;;;;;2071345;28;20034;-70
2021/11/26 03:12:34;;;;;;;59.83;34.75;;;7.20;99.90;;;;;;2078822;28;20083;-70
2021/11/26 03:13:35;;;;;;;59.13;34.08;;;7.20;99.90;;;;;;2077407;28;20556;-70
2021/11/26 03:14:36;;;;;;;54.75;33.83;;;7.20;99.90;;;;;;2071406;28;20022;-70
2021/11/26 03:15:39;;;;;;;57.40;34.75;;;7.20;99.90;;;;;;2070605;28;20037;-70
2021/11/26 03:16:40;;;;;;;57.80;34.25;;;7.20;99.90;;;;;;2071312;28;20021;-71
2021/11/26 03:17:40;;;;;;;58.15;34.10;;;7.20;99.90;;;;;;2072401;28;20466;-70
2021/11/26 03:18:41;;;;;;;54.75;34.53;;;7.20;99.90;;;;;;2072568;28;20022;-70
2021/11/26 03:19:42;;;;;;;53.92;33.97;;;7.20;99.90;;;;;;2080706;28;20429;-70
2021/11/26 03:20:43;;;;;;;58.50;34.80;;;7.20;99.90;;;;;;2079505;28;20100;-70
2021/11/26 03:21:43;;;;;;;60.30;34.17;;;7.20;99.90;;;;;;2080762;28;20018;-70
2021/11/26 03:22:45;;;;;;;50.05;33.95;;;7.20;99.90;;;;;;2080779;28;20018;-70
2021/11/26 03:23:45;;;;;;;54.67;33.55;;;7.20;99.90;;;;;;2080214;28;20080;-70
2021/11/26 03:24:46;;;;;;;53.05;34.95;;;7.20;99.90;;;;;;2080865;28;20097;-70
2021/11/26 03:25:47;;;;;;;56.08;34.50;;;7.20;99.90;;;;;;2080478;28;20052;-70
2021/11/26 03:26:47;;;;;;;52.55;33.85;;;7.20;99.90;;;;;;2077274;28;20504;-70
2021/11/26 03:27:48;;;;;;;54.10;33.83;;;7.20;99.90;;;;;;2078995;28;20036;-70
2021/11/26 03:28:48;;;;;;;60.92;36.00;;;7.20;99.90;;;;;;2080445;28;20392;-70
2021/11/26 03:29:49;;;;;;;54.30;33.55;;;7.20;99.90;;;;;;2079701;28;20508;-70
2021/11/26 03:30:50;;;;;;;51.72;33.58;;;7.20;99.90;;;;;;2080344;28;20056;-70
2021/11/26 03:31:50;;;;;;;56.35;34.90;;;7.20;99.90;;;;;;2081344;28;20033;-70
2021/11/26 03:32:51;;;;;;;54.85;33.45;;;7.20;99.90;;;;;;2081051;28;20107;-70
2021/11/26 03:33:52;;;;;;;53.83;33.80;;;7.20;99.90;;;;;;2072892;28;20109;-70
2021/11/26 03:34:53;;;;;;;54.92;34.60;;;7.20;99.90;;;;;;2072625;28;20026;-70
2021/11/26 03:35:53;;;;;;;58.58;34.13;;;7.20;99.90;;;;;;2073111;28;20025;-70
2021/11/26 03:36:54;;;;;;;55.90;33.67;;;7.20;99.90;;;;;;2072762;28;20037;-70
2021/11/26 03:37:55;;;;;;;49.58;32.83;;;7.20;99.90;;;;;;2076004;28;20405;-71
2021/11/26 03:38:56;;;;;;;50.97;32.85;;;7.20;99.90;;;;;;2081110;28;20021;-70
2021/11/26 03:39:56;;;;;;;58.45;33.70;;;7.20;99.90;;;;;;2080694;28;20032;-70
2021/11/26 03:40:57;;;;;;;55.45;32.33;;;7.20;99.90;;;;;;2078995;28;20107;-70
2021/11/26 03:41:58;;;;;;;54.70;34.15;;;7.20;99.90;;;;;;2079767;28;20072;-70
2021/11/26 03:42:59;;;;;;;51.00;32.75;;;7.10;99.90;;;;;;2077893;28;20529;-70
2021/11/26 03:43:59;;;;;;;58.08;33.63;;;7.20;99.90;;;;;;2072058;28;20030;-70
2021/11/26 03:45:01;;;;;;;52.28;33.50;;;7.20;99.90;;;;;;2072635;28;20026;-70
2021/11/26 03:46:01;;;;;;;53.50;34.35;;;7.20;99.90;;;;;;2073986;28;20034;-70
2021/11/26 03:47:02;;;;;;;60.65;34.65;;;7.20;99.90;;;;;;2072318;28;20105;-70
2021/11/26 03:48:04;;;;;;;54.10;33.08;;;7.20;99.90;;;;;;2080014;28;20520;-71
2021/11/26 03:49:04;;;;;;;56.88;33.92;;;7.20;99.90;;;;;;2080299;28;20070;-70
2021/11/26 03:50:07;;;;;;;52.78;32.35;;;7.20;99.90;;;;;;2071549;28;20048;-70
2021/11/26 03:51:07;;;;;;;52.20;34.72;;;7.20;99.90;;;;;;2071595;28;20122;-70
2021/11/26 03:52:08;;;;;;;58.67;34.97;;;7.20;99.90;;;;;;2071731;28;20094;-70
2021/11/26 03:53:09;;;;;;;53.13;33.13;;;7.20;99.90;;;;;;2072155;28;20477;-70
2021/11/26 03:54:09;;;;;;;52.33;32.95;;;7.20;99.90;;;;;;2072278;28;20072;-70
2021/11/26 03:55:16;;;;;;;53.10;34.80;;;7.20;99.90;;;;;;2080076;28;20026;-70
2021/11/26 03:56:17;;;;;;;54.60;34.45;;;7.20;99.90;;;;;;2078011;28;20405;-70
2021/11/26 03:57:17;;;;;;;55.20;34.78;;;7.20;99.90;;;;;;2080386;28;20104;-70
2021/11/26 03:58:18;;;;;;;55.00;35.60;;;7.20;99.90;;;;;;2080759;28;20044;-70
2021/11/26 03:59:19;;;;;;;53.75;34.70;;;7.20;99.90;;;;;;2079932;28;20101;-70
2021/11/26 04:00:19;;;;;;;61.25;36.72;;;7.20;99.90;;;;;;2080696;28;20453;-70
2021/11/26 04:01:20;;;;;;;47.33;33.75;;;7.20;99.90;;;;;;2073505;28;20053;-70
2021/11/26 04:02:21;;;;;;;56.53;35.05;;;7.20;99.90;;;;;;2072461;28;20589;-70
2021/11/26 04:03:21;;;;;;;60.17;35.65;;;7.20;99.90;;;;;;2071882;28;20116;-70
2021/11/26 04:04:22;;;;;;;54.20;35.50;;;7.20;99.90;;;;;;2072420;28;20088;-70
2021/11/26 04:05:22;;;;;;;56.10;36.00;;;7.20;99.90;;;;;;2072397;28;20120;-70
2021/11/26 04:06:23;;;;;;;54.75;35.83;;;7.20;99.90;;;;;;2072440;28;20080;-70
2021/11/26 04:07:24;;;;;;;58.75;37.47;;;7.20;99.90;;;;;;2075411;28;20382;-70
2021/11/26 04:08:24;;;;;;;55.63;34.50;;;7.20;99.90;;;;;;2080301;28;20017;-70
2021/11/26 04:09:25;;;;;;;57.65;36.13;;;7.20;99.90;;;;;;2073461;28;20108;-70
2021/11/26 04:10:27;;;;;;;57.42;36.05;;;7.20;99.90;;;;;;2072347;28;20451;-70
2021/11/26 04:11:27;;;;;;;55.60;36.03;;;7.20;99.90;;;;;;2079905;28;20031;-70
2021/11/26 04:12:29;;;;;;;54.13;35.08;;;7.20;99.90;;;;;;2081693;28;20625;-70
2021/11/26 04:13:29;;;;;;;57.83;37.22;;;7.20;99.90;;;;;;2071768;28;20025;-70
2021/11/26 04:14:30;;;;;;;55.40;35.50;;;7.20;99.90;;;;;;2072211;28;20026;-70
2021/11/26 04:15:33;;;;;;;57.38;35.63;;;7.20;99.90;;;;;;2072379;28;20034;-70
2021/11/26 04:16:36;;;;;;;57.33;36.33;;;7.20;99.90;;;;;;2072057;28;20013;-70
2021/11/26 04:17:37;;;;;;;54.13;34.42;;;7.20;99.90;;;;;;2072096;28;20018;-70
2021/11/26 04:18:38;;;;;;;59.83;36.38;;;7.20;99.90;;;;;;2072195;28;20098;-71
2021/11/26 04:19:39;;;;;;;56.00;35.20;;;7.20;99.90;;;;;;2072215;28;20040;-71
2021/11/26 04:20:42;;;;;;;56.50;36.00;;;7.20;99.90;;;;;;2072062;28;20406;-71
2021/11/26 04:21:43;;;;;;;50.88;34.65;;;7.20;99.90;;;;;;2072274;28;20010;-71
2021/11/26 04:22:45;;;;;;;58.17;35.28;;;7.20;99.90;;;;;;2078455;28;20471;-71
2021/11/26 04:23:45;;;;;;;57.47;35.03;;;7.20;99.90;;;;;;2080058;28;20038;-70
2021/11/26 04:24:46;;;;;;;51.75;33.35;;;7.20;99.90;;;;;;2080344;28;20038;-71
2021/11/26 04:25:47;;;;;;;56.50;35.25;;;7.20;99.90;;;;;;2080220;28;20030;-71
2021/11/26 04:26:47;;;;;;;52.42;33.03;;;7.20;99.90;;;;;;2077368;28;20140;-71
2021/11/26 04:27:49;;;;;;;55.40;34.75;;;7.20;99.90;;;;;;2078450;28;20029;-71
2021/11/26 04:28:49;;;;;;;52.50;34.28;;;7.20;99.90;;;;;;2079359;28;20025;-71
2021/11/26 04:29:50;;;;;;;53.90;34.45;;;7.20;99.90;;;;;;2080102;28;20025;-71
2021/11/26 04:30:51;;;;;;;53.90;34.95;;;7.20;99.90;;;;;;2080065;28;20462;-71
2021/11/26 04:31:52;;;;;;;56.67;34.25;;;7.30;99.90;;;;;;2080480;28;20135;-71
2021/11/26 04:32:53;;;;;;;53.05;34.08;;;7.30;99.90;;;;;;2080296;28;20413;-71
2021/11/26 04:33:54;;;;;;;48.35;32.30;;;7.30;99.90;;;;;;2080241;28;20025;-71
2021/11/26 04:34:55;;;;;;;54.20;34.58;;;7.30;99.90;;;;;;2080404;28;20127;-71
2021/11/26 04:35:55;;;;;;;53.28;35.28;;;7.30;99.90;;;;;;2079909;28;20025;-71
2021/11/26 04:36:56;;;;;;;55.40;35.17;;;7.30;99.90;;;;;;2077268;28;20040;-70
2021/11/26 04:37:57;;;;;;;49.47;34.10;;;7.30;99.90;;;;;;2079514;28;20040;-71
2021/11/26 04:38:57;;;;;;;55.13;35.85;;;7.30;99.90;;;;;;2072238;28;20382;-71
2021/11/26 04:39:58;;;;;;;53.78;35.22;;;7.20;99.90;;;;;;2072151;28;20672;-71
2021/11/26 04:40:58;;;;;;;58.00;37.42;;;7.30;99.90;;;;;;2071950;28;20018;-71
2021/11/26 04:41:59;;;;;;;58.60;38.50;;;7.30;99.90;;;;;;2080217;28;20022;-71
2021/11/26 04:42:59;;;;;;;51.63;36.70;;;7.20;99.90;;;;;;2080140;28;20083;-70
2021/11/26 04:44:00;;;;;;;55.22;37.45;;;7.20;99.90;;;;;;2079774;28;20033;-71
2021/11/26 04:45:01;;;;;;;54.25;37.35;;;7.20;99.90;;;;;;2079715;28;20056;-71
2021/11/26 04:46:01;;;;;;;52.60;38.25;;;7.20;99.90;;;;;;2078993;28;20481;-71
2021/11/26 04:47:02;;;;;;;58.75;39.13;;;7.20;99.90;;;;;;2071940;28;20116;-71
2021/11/26 04:48:03;;;;;;;54.70;38.08;;;7.20;99.90;;;;;;2080317;28;20034;-71
2021/11/26 04:49:05;;;;;;;64.32;41.38;;;7.20;99.90;;;;;;2079884;28;20036;-71
2021/11/26 04:50:08;;;;;;;56.33;40.03;;;7.20;99.90;;;;;;2079124;28;20029;-71
2021/11/26 04:51:08;;;;;;;55.65;39.47;;;7.20;99.90;;;;;;2075864;28;20160;-71
2021/11/26 04:52:09;;;;;;;54.97;39.13;;;7.20;99.90;;;;;;2079939;28;20103;-71
2021/11/26 04:53:09;;;;;;;58.83;39.67;;;7.20;99.90;;;;;;2079529;28;20477;-71
2021/11/26 04:54:10;;;;;;;58.03;38.53;;;7.30;99.90;;;;;;2071650;28;20033;-72
2021/11/26 04:55:12;;;;;;;57.08;40.58;;;7.20;99.90;;;;;;2079869;28;20397;-70
2021/11/26 04:56:13;;;;;;;58.38;39.70;;;7.30;99.90;;;;;;2077535;28;20347;-71
2021/11/26 04:57:13;;;;;;;59.88;41.33;;;7.30;99.90;;;;;;2080365;28;20167;-71
2021/11/26 04:58:14;;;;;;;55.97;38.75;;;7.20;99.90;;;;;;2079910;28;20021;-71
2021/11/26 04:59:15;;;;;;;59.00;39.72;;;7.20;99.90;;;;;;2079214;28;20026;-71
2021/11/26 05:00:18;;;;;;;54.50;38.85;;;7.30;99.90;;;;;;2079360;28;20042;-71
2021/11/26 05:01:19;;;;;;;55.40;40.22;;;7.20;99.90;;;;;;2080353;28;20017;-71
2021/11/26 05:02:19;;;;;;;55.30;38.17;;;7.30;99.90;;;;;;2079962;28;20021;-71
2021/11/26 05:03:20;;;;;;;54.42;38.58;;;7.30;99.90;;;;;;2079052;28;20033;-71
2021/11/26 05:04:20;;;;;;;52.72;37.47;;;7.30;99.90;;;;;;2074128;28;20398;-71
2021/11/26 05:05:21;;;;;;;52.95;38.63;;;7.30;99.90;;;;;;2078267;28;20025;-71
2021/11/26 05:06:22;;;;;;;50.28;36.72;;;7.30;99.90;;;;;;2071959;28;20552;-71
2021/11/26 05:07:24;;;;;;;49.20;36.67;;;7.30;99.90;;;;;;2072292;28;20409;-71
2021/11/26 05:08:26;;;;;;;50.63;36.88;;;7.20;99.90;;;;;;2074240;28;20018;-71
2021/11/26 05:09:27;;;;;;;58.90;35.97;;;7.30;99.90;;;;;;2079983;28;20029;-71
2021/11/26 05:10:28;;;;;;;49.15;36.50;;;7.30;99.90;;;;;;2079830;28;20021;-71
2021/11/26 05:11:28;;;;;;;50.92;36.55;;;7.30;99.90;;;;;;2080059;28;20487;-71
2021/11/26 05:12:35;;;;;;;51.60;35.85;;;7.30;99.90;;;;;;2081945;28;20014;-71
2021/11/26 05:13:41;;;;;;;50.28;36.65;;;7.30;99.90;;;;;;2078183;28;20028;-71
2021/11/26 05:14:42;;;;;;;55.88;36.75;;;7.30;99.90;;;;;;2071791;28;20026;-71